Southwestern Research Station, Arizona Weather observations

Data are for 10 minute period ending at time listed.
 Day   Time   Solar   Ave.   Ave.  Ave.  Vector  Max.   Baro.   Total    
  of    of     Rad.   Air    Rel.  Wind   Wind   Wind  Press.  Precip.   
Year   Day            Temp.  Hum.  Speed  Dir.   Gust                    
2026   (PST)  Kw/m2    F      %     mph   deg.    mph    mb.     in.     
-------------------------------------------------------------------------
 122   15:40   0.14   63.9    46    0.3    74     1.8   835.3    0.00 
 122   15:50   0.20   64.1    46    0.9    50     4.9   835.4    0.00 
 122   16:00   0.48   64.8    44    1.4   144     4.5   835.1    0.00 
 122   16:10   0.26   65.0    43    1.1   145     3.8   835.2    0.00 
 122   16:20   0.14   64.4    46    1.0   136     4.5   835.2    0.00 
 122   16:30   0.11   64.0    46    0.7   182     2.9   835.3    0.00 
 122   16:40   0.11   63.8    46    0.6   187     3.2   835.2    0.00 
 122   16:50   0.19   64.2    44    0.4   274     1.8   835.3    0.00 
 122   17:00   0.11   64.2    43    0.2   246     2.4   835.3    0.00 
 122   17:10   0.12   63.9    44    0.4    95     2.3   835.3    0.00 
 122   17:20   0.12   63.7    46    0.1   127     1.2   835.3    0.00 
 122   17:30   0.11   63.8    47    1.0    92     2.9   835.2    0.00 
 122   17:40   0.07   63.5    46    0.1    76     1.2   835.2    0.00 
 122   17:50   0.06   62.9    48    0.0   151     0.5   835.3    0.00 
 122   18:00   0.07   62.9    48    0.0     0     0.0   835.3    0.00 
 122   18:10   0.06   62.8    52    0.0     0     0.0   835.2    0.00 
 122   18:20   0.03   62.2    54    0.0     0     0.0   835.3    0.00 
 122   18:30   0.03   60.6    58    0.0   293     0.7   835.3    0.00 
 122   18:40   0.03   59.3    61    0.0     0     0.0   835.4    0.00 
 122   18:50   0.01   57.9    65    0.0     0     0.0   835.5    0.00 
 122   19:00   0.01   56.8    67    0.2   248     1.6   835.5    0.00 
 122   19:10   0.01   56.4    69    0.0     0     0.0   835.5    0.00 
 122   19:20   0.00   55.6    71    0.0   290     0.9   835.5    0.00 
 122   19:30   0.00   54.9    72    0.0     0     0.0   835.6    0.00 
 122   19:40   0.00   54.0    74    0.2   262     1.5   835.6    0.00 
 122   19:50   0.00   53.1    76    0.2   257     1.5   835.5    0.00 
 122   20:00   0.00   52.4    78    0.1   282     2.3   835.5    0.00 
 122   20:10   0.00   51.8    79    0.3   262     2.5   835.6    0.00 
 122   20:20   0.00   51.3    80    0.3   265     1.5   835.6    0.00 
 122   20:30   0.00   50.8    81    0.3   260     2.3   835.7    0.00 
 122   20:40   0.00   50.3    82    0.2   269     2.3   835.7    0.00 
 122   20:50   0.00   49.7    84    0.1   249     2.0   835.7    0.00 
 122   21:00   0.00   49.4    85    0.0   281     1.2   835.8    0.00 
 122   21:10   0.00   49.1    85    0.0     0     0.0   835.9    0.00 
 122   21:20   0.00   48.7    86    0.4   268     2.0   836.0    0.00 
 122   21:30   0.00   48.1    87    0.0     0     0.0   836.2    0.00 
 122   21:40   0.00   47.9    87    0.3   275     1.8   836.1    0.00 
 122   21:50   0.00   47.6    88    0.0   244     0.6   836.2    0.00 
 122   22:00   0.00   47.2    89    0.3   284     2.0   836.2    0.00 
 122   22:10   0.00   47.2    89    0.2   273     1.4   836.3    0.00 
 122   22:20   0.00   46.8    89    0.1   296     1.2   836.4    0.00 
 122   22:30   0.00   46.6    90    0.3   263     2.5   836.4    0.00 
 122   22:40   0.00   46.2    90    0.1   266     1.0   836.4    0.00 
 122   22:50   0.00   45.9    91    0.5   272     2.3   836.4    0.00 
 122   23:00   0.00   46.0    91    0.2   214     1.5   836.4    0.00 
 122   23:10   0.00   45.6    91    0.4   275     3.3   836.4    0.00 
 122   23:20   0.00   45.7    92    0.1   277     1.7   836.4    0.00 
 122   23:30   0.00   45.5    92    0.3   269     1.2   836.4    0.00 
 122   23:40   0.00   45.8    92    0.4   315     1.6   836.4    0.00 
 122   23:50   0.00   45.5    92    0.0   231     0.1   836.4    0.00 
 123    0:00   0.00   45.2    92    0.3   296     2.0   836.4    0.00 
 123    0:10   0.00   45.2    93    0.2   343     1.1   836.4    0.00 
 123    0:20   0.00   44.9    93    0.3   255     2.0   836.3    0.00 
 123    0:30   0.00   44.5    93    0.6   250     2.3   836.1    0.00 
 123    0:40   0.00   44.7    94    0.4   312     2.3   836.1    0.00 
 123    0:50   0.00   44.6    94    0.1   267     2.3   836.1    0.00 
 123    1:00   0.00   44.7    94    0.2   257     1.7   836.1    0.00 
 123    1:10   0.00   45.0    94    0.3   258     1.9   836.0    0.00 
 123    1:20   0.00   45.5    94    0.1    10     1.2   835.9    0.00 
 123    1:30   0.00   45.8    93    0.1   275     1.0   835.9    0.00 
 123    1:40   0.00   45.9    93    0.0   290     0.9   835.8    0.00 
 123    1:50   0.00   45.8    93    0.0   254     0.4   835.8    0.00 
 123    2:00   0.00   45.6    93    0.3   275     1.3   835.7    0.00 
 123    2:10   0.00   45.4    94    0.4   247     2.0   835.6    0.00 
 123    2:20   0.00   45.2    94    0.0   243     0.3   835.6    0.00 
 123    2:30   0.00   45.1    94    0.2   271     1.0   835.5    0.00 
 123    2:40   0.00   44.9    94    0.0   271     0.1   835.4    0.00 
 123    2:50   0.00   44.6    95    0.1   268     1.9   835.3    0.00 
 123    3:00   0.00   44.6    95    0.0   279     0.7   835.4    0.00 
 123    3:10   0.00   44.6    95    0.3   260     2.3   835.4    0.00 
 123    3:20   0.00   44.5    95    0.2   314     1.8   835.4    0.00 
 123    3:30   0.00   44.1    95    0.2   263     1.9   835.2    0.00 
 123    3:40   0.00   44.0    96    0.3   268     1.3   835.2    0.00 
 123    3:50   0.00   44.2    96    0.0   222     0.7   835.1    0.00 
 123    4:00   0.00   44.1    96    0.4   287     1.6   835.0    0.00 
 123    4:10   0.00   44.3    96    0.3   277     1.5   835.0    0.00 
 123    4:20   0.00   44.1    96    0.0   218     0.6   835.0    0.00 
 123    4:30   0.00   44.0    96    0.0   263     1.1   835.0    0.00 
 123    4:40   0.00   43.7    96    0.0   224     0.3   835.0    0.00 
 123    4:50   0.00   43.8    96    0.1   285     1.0   835.1    0.00 
 123    5:00   0.00   43.8    96    0.1   248     1.0   835.1    0.00 
 123    5:10   0.00   43.8    96    0.1   336     0.7   835.1    0.00 
 123    5:20   0.00   43.9    96    0.1   221     1.7   835.3    0.00 
 123    5:30   0.00   43.8    96    0.1   295     0.6   835.3    0.00 
 123    5:40   0.01   44.1    96    0.0   247     0.1   835.3    0.00 
 123    5:50   0.02   44.1    96    0.0   240     0.7   835.4    0.00 
 123    6:00   0.03   44.5    96    0.1   262     1.0   835.5    0.00 
 123    6:10   0.03   44.7    96    0.0   267     0.7   835.4    0.00 
 123    6:20   0.05   45.2    96    0.1   267     1.5   835.4    0.00 
 123    6:30   0.06   46.0    96    0.1   267     0.8   835.5    0.00 
 123    6:40   0.09   46.9    96    0.0   210     0.4   835.5    0.00 
 123    6:50   0.09   47.9    95    0.2   319     1.4   835.5    0.00 
 123    7:00   0.08   49.2    93    0.3   228     1.3   835.5    0.00 
 123    7:10   0.12   50.1    91    0.0   151     0.6   835.5    0.00 
 123    7:20   0.20   51.3    84    0.2   191     1.0   835.7    0.00 
 123    7:30   0.20   53.4    76    1.1   114     3.5   835.7    0.00 
 123    7:40   0.20   54.6    71    0.3   119     2.6   835.8    0.00 
 123    7:50   0.21   55.2    67    0.8   118     3.4   835.7    0.00 
 123    8:00   0.47   56.5    64    1.0   120     3.9   835.7    0.00 
 123    8:10   0.31   58.6    60    1.2   117     4.2   835.7    0.00 
 123    8:20   0.35   58.4    60    1.4   128     4.5   835.8    0.00 
 123    8:30   0.28   59.1    59    1.9   122     5.6   836.0    0.00 
 123    8:40   0.33   59.2    59    2.5   111     6.6   836.1    0.00 
 123    8:50   0.34   59.3    59    2.2   100     5.9   836.3    0.00 
 123    9:00   0.47   60.4    58    2.7   114     6.4   836.5    0.00 
 123    9:10   0.48   61.2    56    3.6   108     9.9   836.4    0.00 
 123    9:20   0.45   61.3    56    2.8   118     8.8   836.2    0.00 
 123    9:30   0.53   61.7    56    2.7   116     9.2   836.2    0.00 
 123    9:40   0.58   63.2    53    4.2   112    10.4   836.3    0.00 
 123    9:50   0.62   64.1    51    4.0   102    11.4   836.3    0.00 
 123   10:00   0.52   65.1    50    3.0    98     9.2   836.2    0.00 
 123   10:10   0.53   65.2    49    4.2    91    12.9   836.2    0.00 
 123   10:20   0.51   65.2    48    4.5    93    10.2   836.2    0.00 
 123   10:30   0.59   65.5    48    3.9    93    10.2   836.2    0.00 
 123   10:40   0.61   66.6    46    3.5    92    10.7   836.2    0.00 
 123   10:50   0.60   67.1    46    3.3   103    10.1   836.3    0.00 
 123   11:00   0.60   67.3    45    3.5   110     8.1   836.4    0.00 
 123   11:10   0.63   68.5    44    3.6   108     9.3   836.2    0.00 
 123   11:20   0.60   68.5    43    3.8   106     9.1   836.2    0.00 
 123   11:30   0.70   68.7    43    3.3   110     7.7   836.0    0.00 
 123   11:40   0.77   70.1    41    2.9   111     7.3   835.8    0.00 
 123   11:50   0.75   70.9    40    2.5   105     8.7   835.6    0.00 
 123   12:00   0.48   70.7    41    2.0   112     5.9   835.6    0.00 
 123   12:10   0.48   70.8    39    2.1   105     7.5   835.4    0.00 
 123   12:20   0.46   71.1    39    1.5   155     4.5   835.3    0.00 
 123   12:30   0.53   71.0    37    1.3   130     4.6   835.2    0.00 
 123   12:40   0.52   71.5    38    3.1   124     6.9   835.0    0.00 
 123   12:50   0.47   72.1    37    2.6   100     7.2   834.8    0.00 
 123   13:00   0.58   71.8    36    2.6   136     6.6   834.6    0.00 
 123   13:10   0.63   73.2    34    2.4   136     6.2   834.3    0.00 
 123   13:20   0.78   74.0    32    3.1   145    10.0   834.2    0.00 
 123   13:30   0.52   73.7    31    3.5   175     9.2   834.2    0.00 
 123   13:40   0.65   74.6    30    2.3   190     8.0   834.2    0.00 
 123   13:50   0.49   74.5    30    1.8   136     5.8   834.2    0.00 
 123   14:00   0.59   74.9    30    2.4   140     8.3   833.9    0.00 
 123   14:10   0.63   75.9    29    2.3   141     8.5   833.8    0.00 
 123   14:20   0.52   74.8    29    4.4   154    16.4   833.8    0.00 
 123   14:30   0.26   73.5    30    3.7   131    11.3   833.7    0.00 
 123   14:40   0.29   73.1    31    2.8   131     8.1   833.4    0.00 
 123   14:50   0.52   74.0    29    3.1   145     9.4   833.3    0.00 
 123   15:00   0.42   74.5    29    3.3   151    10.6   833.1    0.00 
 123   15:10   0.53   74.3    29    3.4   144    12.6   832.9    0.00 
 123   15:20   0.50   75.2    28    2.4   190     9.8   832.9    0.00 
 123   15:30   0.45   75.0    28    1.8   175     6.4   832.9    0.00 

Return to Southwestern Research Station graphs page.


Western Regional Climate Center,wrcc@dri.edu